Time;durP1;ratioP1;P1;durP2;ratioP2;P2;SDS_P1;SDS_P2;PMS_P1;PMS_P2;Temp;Humidity;BMP_temperature;BMP_pressure;BME280_temperature;BME280_humidity;BME280_pressure;Samples;Min_cycle;Max_cycle;Signal;HPM_P1;HPM_P2
2021/01/19 00:00:13;;;;;;;7.57;3.60;;;4.80;70.20;;;;;;2584317;52;20926;-72
2021/01/19 00:02:39;;;;;;;9.48;4.65;;;4.80;70.00;;;;;;2581712;52;21481;-72
2021/01/19 00:05:06;;;;;;;8.75;4.50;;;4.80;70.10;;;;;;2342224;53;20981;-72
2021/01/19 00:07:33;;;;;;;7.32;4.10;;;4.80;70.10;;;;;;2593737;52;20943;-72
2021/01/19 00:09:59;;;;;;;7.47;3.40;;;4.70;70.10;;;;;;2360816;53;20955;-72
2021/01/19 00:12:26;;;;;;;7.60;3.60;;;4.80;70.10;;;;;;2599142;52;20947;-71
2021/01/19 00:14:54;;;;;;;8.73;3.47;;;4.70;70.10;;;;;;2591318;52;21035;-72
2021/01/19 00:17:21;;;;;;;7.87;3.22;;;4.70;70.20;;;;;;2598322;52;20930;-72
2021/01/19 00:19:47;;;;;;;5.20;2.95;;;4.70;70.30;;;;;;2587246;52;20971;-72
2021/01/19 00:22:17;;;;;;;5.85;2.90;;;4.70;70.30;;;;;;2360687;53;20958;-72
2021/01/19 00:24:43;;;;;;;8.30;2.78;;;4.70;70.10;;;;;;2604226;52;20966;-72
2021/01/19 00:27:10;;;;;;;6.15;2.80;;;4.70;70.10;;;;;;2594202;52;21005;-72
2021/01/19 00:29:36;;;;;;;6.53;3.20;;;4.70;70.20;;;;;;2592772;52;20951;-72
2021/01/19 00:32:05;;;;;;;6.68;2.50;;;4.60;70.00;;;;;;2370965;53;20938;-72
2021/01/19 00:34:32;;;;;;;4.95;2.37;;;4.60;70.00;;;;;;2573770;53;21114;-72
2021/01/19 00:36:58;;;;;;;6.05;2.42;;;4.70;70.10;;;;;;2611304;52;20969;-72
2021/01/19 00:39:26;;;;;;;8.77;2.78;;;4.60;69.90;;;;;;2346718;53;20955;-72
2021/01/19 00:41:52;;;;;;;5.68;2.20;;;4.60;69.80;;;;;;2578630;52;20978;-72
2021/01/19 00:44:19;;;;;;;6.15;2.30;;;4.60;69.70;;;;;;2596861;52;20918;-72
2021/01/19 00:46:45;;;;;;;6.65;2.40;;;4.60;69.60;;;;;;2356154;53;20936;-72
2021/01/19 00:49:12;;;;;;;4.20;1.87;;;4.60;69.50;;;;;;2351213;54;22511;-72
2021/01/19 00:51:38;;;;;;;4.90;2.05;;;4.50;69.40;;;;;;2593450;52;20988;-72
2021/01/19 00:54:05;;;;;;;4.40;2.10;;;4.50;69.80;;;;;;2359492;54;20931;-72
2021/01/19 00:56:38;;;;;;;6.40;2.17;;;4.40;69.20;;;;;;2356492;54;21500;-72
2021/01/19 00:59:05;;;;;;;5.70;2.50;;;4.40;69.10;;;;;;2604103;52;21043;-72
2021/01/19 01:01:31;;;;;;;4.37;2.20;;;4.40;69.10;;;;;;2588585;52;20978;-72
2021/01/19 01:03:57;;;;;;;5.70;2.60;;;4.30;68.80;;;;;;2347309;53;20970;-72
2021/01/19 01:06:24;;;;;;;5.25;2.47;;;4.30;68.70;;;;;;2617109;52;20973;-72
2021/01/19 01:08:50;;;;;;;4.55;1.98;;;4.30;68.70;;;;;;2582722;52;20992;-72
2021/01/19 01:11:16;;;;;;;5.50;2.30;;;4.20;68.50;;;;;;2600610;52;20906;-72
2021/01/19 01:13:43;;;;;;;4.85;1.90;;;4.20;68.40;;;;;;2344068;53;20970;-72
2021/01/19 01:16:10;;;;;;;4.55;1.75;;;4.10;68.30;;;;;;2590574;52;21395;-71
2021/01/19 01:18:36;;;;;;;4.15;1.87;;;4.10;68.30;;;;;;2619306;52;21537;-72
2021/01/19 01:21:03;;;;;;;4.85;1.80;;;4.00;68.20;;;;;;2360428;54;20983;-72
2021/01/19 01:23:29;;;;;;;4.53;1.70;;;4.00;68.20;;;;;;2355440;54;20898;-72
2021/01/19 01:25:56;;;;;;;2.50;1.00;;;3.70;68.00;;;;;;2588468;52;21314;-72
2021/01/19 01:28:22;;;;;;;4.90;2.03;;;3.90;68.20;;;;;;2573907;52;21003;-72
2021/01/19 01:30:49;;;;;;;6.00;1.80;;;3.90;68.30;;;;;;2571073;52;20958;-70
2021/01/19 01:33:17;;;;;;;4.57;1.62;;;3.80;68.40;;;;;;2597918;52;20999;-71
2021/01/19 01:35:44;;;;;;;3.25;1.37;;;3.80;68.50;;;;;;2348019;54;21853;-72
2021/01/19 01:38:11;;;;;;;4.62;1.83;;;3.80;68.70;;;;;;2612805;52;21041;-72
2021/01/19 01:40:40;;;;;;;4.75;1.73;;;3.70;68.80;;;;;;2587295;52;21019;-72
2021/01/19 01:43:11;;;;;;;4.90;2.53;;;3.70;68.90;;;;;;2619313;52;21009;-72
2021/01/19 01:45:37;;;;;;;6.32;2.20;;;3.70;69.10;;;;;;2344930;54;21429;-71
2021/01/19 01:48:04;;;;;;;5.12;2.22;;;3.70;69.20;;;;;;2370529;54;21006;-71
2021/01/19 01:50:30;;;;;;;5.07;2.22;;;3.60;69.20;;;;;;2591347;52;20904;-71
2021/01/19 01:52:58;;;;;;;4.28;2.00;;;3.70;69.40;;;;;;2616079;52;21093;-72
2021/01/19 01:55:24;;;;;;;5.65;2.00;;;3.70;69.60;;;;;;2583007;52;21062;-71
2021/01/19 01:57:51;;;;;;;4.70;2.00;;;3.60;69.60;;;;;;2609783;52;21401;-72
2021/01/19 02:00:19;;;;;;;6.18;3.40;;;3.70;69.70;;;;;;2370402;53;20921;-71
2021/01/19 02:02:48;;;;;;;7.20;3.83;;;3.70;69.80;;;;;;2593487;52;21733;-71
2021/01/19 02:05:18;;;;;;;8.85;3.90;;;3.60;69.80;;;;;;2615550;52;20953;-69
2021/01/19 02:09:40;;;;;;;4.70;2.47;;;3.60;69.70;;;;;;2592492;52;20959;-71
2021/01/19 02:12:06;;;;;;;3.33;1.50;;;3.70;69.10;;;;;;2579296;53;21070;-71
2021/01/19 02:14:36;;;;;;;3.65;1.37;;;3.60;69.50;;;;;;2598679;52;21036;-71
2021/01/19 02:20:46;;;;;;;3.10;1.48;;;3.60;69.40;;;;;;2602949;52;20963;-70
2021/01/19 02:23:33;;;;;;;3.28;1.20;;;3.60;68.60;;;;;;2319683;54;21777;-71
2021/01/19 02:30:12;;;;;;;5.53;1.42;;;3.60;69.00;;;;;;2582061;52;20953;-71
2021/01/19 02:34:06;;;;;;;1.98;0.90;;;3.60;68.50;;;;;;2370159;54;20990;-72
2021/01/19 02:36:55;;;;;;;2.58;1.05;;;3.50;68.50;;;;;;2371822;54;21005;-72
2021/01/19 02:40:54;;;;;;;2.70;1.17;;;3.60;68.80;;;;;;2583700;52;21847;-71
2021/01/19 02:43:23;;;;;;;3.12;1.00;;;3.40;68.40;;;;;;2557111;53;21073;-71
2021/01/19 02:45:50;;;;;;;4.47;1.00;;;3.40;68.80;;;;;;2574390;52;20964;-71
2021/01/19 02:48:16;;;;;;;5.07;1.85;;;3.30;68.70;;;;;;2588431;53;20949;-71
2021/01/19 02:50:43;;;;;;;3.10;1.20;;;3.30;68.80;;;;;;2580822;52;20969;-71
2021/01/19 02:53:10;;;;;;;2.70;1.33;;;3.20;68.90;;;;;;2340653;53;21019;-71
2021/01/19 02:55:37;;;;;;;3.25;1.12;;;3.20;69.20;;;;;;2560645;53;21022;-71
2021/01/19 02:59:00;;;;;;;4.03;1.30;;;3.20;69.40;;;;;;2543494;53;21737;-71
2021/01/19 03:01:29;;;;;;;3.40;1.37;;;3.20;69.20;;;;;;2559944;52;21756;-71
2021/01/19 03:04:07;;;;;;;4.68;1.65;;;3.30;69.90;;;;;;2575245;52;21036;-71
2021/01/19 03:06:48;;;;;;;6.35;1.42;;;3.30;70.00;;;;;;2332310;53;20982;-71
2021/01/19 03:09:14;;;;;;;4.03;1.30;;;3.30;70.00;;;;;;2325613;53;21055;-71
2021/01/19 03:11:41;;;;;;;4.65;1.52;;;3.30;70.30;;;;;;2540719;53;21074;-71
2021/01/19 03:14:22;;;;;;;7.75;1.70;;;3.30;70.40;;;;;;2575582;53;20943;-71
2021/01/19 03:16:48;;;;;;;6.20;1.48;;;3.30;70.40;;;;;;2575689;52;21043;-71
2021/01/19 03:19:22;;;;;;;4.62;1.40;;;3.40;70.80;;;;;;2574846;52;21078;-71
2021/01/19 03:21:49;;;;;;;5.05;1.52;;;3.40;70.90;;;;;;2339007;53;21493;-71
2021/01/19 03:24:15;;;;;;;4.60;1.60;;;3.40;70.90;;;;;;2551054;53;21008;-71
2021/01/19 03:26:41;;;;;;;7.20;1.77;;;3.40;70.90;;;;;;2537437;54;21013;-71
2021/01/19 03:29:09;;;;;;;4.82;1.80;;;3.50;70.90;;;;;;2316601;54;20979;-71
2021/01/19 03:31:36;;;;;;;5.57;2.03;;;3.50;71.00;;;;;;2584527;52;21683;-71
2021/01/19 03:34:02;;;;;;;5.12;1.70;;;3.50;70.90;;;;;;2578428;52;20942;-71
2021/01/19 03:36:28;;;;;;;6.65;2.00;;;3.50;71.00;;;;;;2359721;53;21042;-71
2021/01/19 03:38:54;;;;;;;5.45;1.98;;;3.60;71.00;;;;;;2371036;54;21454;-71
2021/01/19 03:41:22;;;;;;;4.68;1.75;;;3.60;71.20;;;;;;2621432;52;21005;-71
2021/01/19 03:43:49;;;;;;;4.53;1.83;;;3.60;71.10;;;;;;2594832;52;21033;-71
2021/01/19 03:46:16;;;;;;;5.05;2.22;;;3.60;71.10;;;;;;2617720;52;21014;-71
2021/01/19 03:48:44;;;;;;;3.22;1.70;;;3.60;71.10;;;;;;2616972;52;21023;-71
2021/01/19 03:51:12;;;;;;;5.10;1.80;;;3.70;71.90;;;;;;2572665;52;20969;-71
2021/01/19 03:53:38;;;;;;;4.70;2.03;;;3.70;71.30;;;;;;2622617;52;20981;-72
2021/01/19 03:56:05;;;;;;;5.03;2.20;;;3.80;71.40;;;;;;2593867;52;21006;-71
2021/01/19 03:58:31;;;;;;;5.72;2.33;;;3.80;71.30;;;;;;2610241;52;21042;-71
2021/01/19 04:00:58;;;;;;;6.70;2.00;;;3.80;71.20;;;;;;2598297;52;20946;-71
2021/01/19 04:03:26;;;;;;;5.93;2.28;;;3.80;71.20;;;;;;2621876;52;20942;-71
2021/01/19 04:05:53;;;;;;;8.82;2.20;;;3.80;71.10;;;;;;2598327;52;20971;-71
2021/01/19 04:08:19;;;;;;;4.93;2.20;;;3.90;71.20;;;;;;2561169;53;21034;-71
2021/01/19 04:10:48;;;;;;;4.95;1.83;;;3.90;71.10;;;;;;2593525;52;21070;-71
2021/01/19 04:13:21;;;;;;;4.45;1.98;;;3.90;71.10;;;;;;2594943;52;21067;-71
2021/01/19 04:15:48;;;;;;;3.20;1.60;;;4.00;71.20;;;;;;2622112;52;20961;-71
2021/01/19 04:18:15;;;;;;;7.05;1.70;;;3.90;71.20;;;;;;2598466;52;20939;-71
2021/01/19 04:20:41;;;;;;;4.85;1.65;;;4.00;71.20;;;;;;2603173;52;20975;-71
2021/01/19 04:23:07;;;;;;;4.93;1.58;;;4.00;71.90;;;;;;2356310;53;20963;-71
2021/01/19 04:25:35;;;;;;;3.87;1.77;;;4.10;71.40;;;;;;2593786;52;20959;-71
2021/01/19 04:28:01;;;;;;;4.22;1.40;;;4.10;71.40;;;;;;2591240;52;21030;-72
2021/01/19 04:30:28;;;;;;;4.03;1.50;;;4.10;71.30;;;;;;2578340;52;21748;-71
2021/01/19 04:32:54;;;;;;;4.25;1.50;;;4.10;71.20;;;;;;2584931;52;20951;-71
2021/01/19 04:35:22;;;;;;;4.70;1.20;;;4.20;71.20;;;;;;2602659;52;20979;-71
2021/01/19 04:37:49;;;;;;;5.62;1.60;;;4.20;71.20;;;;;;2356414;53;20950;-71
2021/01/19 04:40:16;;;;;;;4.93;1.50;;;4.20;71.20;;;;;;2371386;54;21053;-71
2021/01/19 04:42:43;;;;;;;4.60;1.50;;;4.30;71.20;;;;;;2592495;52;20952;-71
2021/01/19 04:45:10;;;;;;;4.65;1.77;;;4.30;71.30;;;;;;2620255;52;21005;-71
2021/01/19 04:47:37;;;;;;;4.05;1.37;;;4.30;71.20;;;;;;2589340;52;21162;-71
2021/01/19 04:50:07;;;;;;;3.20;1.17;;;4.30;71.10;;;;;;2595494;52;21009;-71
2021/01/19 04:52:33;;;;;;;7.10;1.48;;;4.30;71.10;;;;;;2599286;52;20963;-72
2021/01/19 04:55:15;;;;;;;4.95;1.55;;;4.40;71.10;;;;;;2359635;54;20950;-71
2021/01/19 04:57:42;;;;;;;4.50;1.30;;;4.40;71.00;;;;;;2604087;52;20920;-71
2021/01/19 05:00:16;;;;;;;3.55;1.27;;;4.40;71.00;;;;;;2608040;52;21773;-71
2021/01/19 05:09:36;;;;;;;3.55;1.30;;;4.40;71.00;;;;;;2595037;52;20921;-71
2021/01/19 05:12:03;;;;;;;3.60;1.50;;;4.50;69.50;;;;;;2613917;52;21040;-71
2021/01/19 05:14:36;;;;;;;3.80;1.23;;;4.50;70.60;;;;;;2592722;52;20894;-71
2021/01/19 05:17:02;;;;;;;4.12;1.37;;;4.50;70.40;;;;;;2362838;53;20943;-71
2021/01/19 05:19:29;;;;;;;3.83;1.60;;;4.50;70.70;;;;;;2596541;52;20920;-71
2021/01/19 05:21:57;;;;;;;6.05;1.85;;;4.50;70.80;;;;;;2585697;52;21046;-71
2021/01/19 05:24:23;;;;;;;8.57;3.90;;;4.60;70.70;;;;;;2580172;52;20992;-71
2021/01/19 05:26:52;;;;;;;8.93;2.60;;;4.60;70.90;;;;;;2590183;52;21022;-72
2021/01/19 05:29:20;;;;;;;7.68;3.97;;;4.60;71.00;;;;;;2607986;52;20927;-71
2021/01/19 05:31:50;;;;;;;5.45;2.90;;;4.60;70.90;;;;;;2606927;52;21471;-71
2021/01/19 05:34:17;;;;;;;6.93;2.87;;;4.60;70.70;;;;;;2591888;52;20931;-72
2021/01/19 05:36:47;;;;;;;8.35;2.55;;;4.70;70.80;;;;;;2604811;52;21073;-71
2021/01/19 05:39:49;;;;;;;4.57;1.75;;;4.70;70.90;;;;;;2563834;53;21724;-71
2021/01/19 05:42:23;;;;;;;6.33;1.93;;;4.70;69.90;;;;;;2583003;53;21042;-71
2021/01/19 05:44:49;;;;;;;3.65;1.50;;;4.70;70.50;;;;;;2601177;52;20946;-71
2021/01/19 05:47:16;;;;;;;4.70;1.30;;;4.80;70.70;;;;;;2589645;52;21029;-71
2021/01/19 05:49:42;;;;;;;7.55;1.98;;;4.80;70.50;;;;;;2587570;52;21452;-71
2021/01/19 05:52:13;;;;;;;5.68;1.70;;;4.80;70.80;;;;;;2591042;52;20955;-71
2021/01/19 05:54:40;;;;;;;7.25;1.60;;;4.80;70.60;;;;;;2591837;52;21519;-72
2021/01/19 05:57:11;;;;;;;4.45;1.50;;;4.80;70.60;;;;;;2559576;52;21006;-71
2021/01/19 05:59:46;;;;;;;6.05;1.62;;;4.80;70.50;;;;;;2581291;52;20972;-71
2021/01/19 06:02:17;;;;;;;4.32;1.83;;;4.80;70.30;;;;;;2583212;52;20964;-71
2021/01/19 06:04:50;;;;;;;5.50;1.77;;;4.90;70.50;;;;;;2568856;52;21019;-71
2021/01/19 06:07:26;;;;;;;4.97;1.67;;;4.90;70.50;;;;;;2576103;52;20925;-71
2021/01/19 06:09:53;;;;;;;4.07;1.33;;;4.90;70.90;;;;;;2605316;52;20927;-71
2021/01/19 06:12:19;;;;;;;3.87;1.80;;;4.90;70.40;;;;;;2352898;54;20968;-71
2021/01/19 06:14:52;;;;;;;3.92;1.58;;;4.90;70.20;;;;;;2333174;53;21187;-71
2021/01/19 06:17:22;;;;;;;6.10;2.05;;;4.90;70.30;;;;;;2352286;53;21069;-71
2021/01/19 06:19:52;;;;;;;3.20;1.40;;;4.90;70.00;;;;;;2360653;54;21005;-71
2021/01/19 06:22:25;;;;;;;5.43;1.70;;;5.00;70.30;;;;;;2352543;53;21073;-71
2021/01/19 06:24:55;;;;;;;4.35;1.30;;;4.90;70.00;;;;;;2586823;52;20968;-71
2021/01/19 06:27:34;;;;;;;4.78;1.60;;;4.90;70.20;;;;;;2343153;53;20985;-71
2021/01/19 06:30:09;;;;;;;5.55;1.42;;;5.00;70.00;;;;;;2311468;53;20971;-71
2021/01/19 06:32:37;;;;;;;7.65;3.25;;;5.00;70.00;;;;;;2552502;53;20982;-71
2021/01/19 06:35:16;;;;;;;5.37;2.00;;;5.00;70.20;;;;;;2561110;52;21092;-71
2021/01/19 06:37:43;;;;;;;4.93;2.17;;;5.00;70.00;;;;;;2589595;52;20959;-71
2021/01/19 06:40:11;;;;;;;5.55;1.40;;;5.00;70.00;;;;;;2558859;52;1320545;-71
2021/01/19 06:42:38;;;;;;;5.37;1.55;;;5.00;70.10;;;;;;2300448;54;20994;-71
2021/01/19 06:45:10;;;;;;;7.05;1.60;;;5.00;69.90;;;;;;2587054;52;20897;-71
2021/01/19 06:47:48;;;;;;;4.60;1.65;;;5.00;70.00;;;;;;2602164;52;20921;-71
2021/01/19 06:50:14;;;;;;;4.87;1.30;;;5.00;69.50;;;;;;2571818;53;20961;-71
2021/01/19 06:52:41;;;;;;;7.93;1.52;;;5.00;69.70;;;;;;2319579;54;20921;-71
2021/01/19 06:55:52;;;;;;;3.55;1.60;;;5.00;69.90;;;;;;2588981;53;21020;-71
2021/01/19 06:59:09;;;;;;;6.20;2.50;;;5.00;69.00;;;;;;2556313;53;20967;-70
2021/01/19 07:01:39;;;;;;;6.32;2.60;;;5.00;68.50;;;;;;2588774;52;20951;-71
2021/01/19 07:04:24;;;;;;;14.27;2.92;;;4.90;69.10;;;;;;2341436;54;20978;-71
2021/01/19 07:07:06;;;;;;;11.73;3.00;;;4.90;68.80;;;;;;2591366;52;20936;-71
2021/01/19 07:12:44;;;;;;;7.07;2.03;;;4.90;68.90;;;;;;2591473;52;21493;-71
2021/01/19 07:15:11;;;;;;;8.35;2.37;;;4.80;68.20;;;;;;2348284;54;20939;-71
2021/01/19 07:27:55;;;;;;;5.45;1.87;;;4.80;69.20;;;;;;2363591;54;21034;-71
2021/01/19 07:30:23;;;;;;;3.85;1.27;;;4.80;69.00;;;;;;2607630;52;21034;-71
2021/01/19 07:32:51;;;;;;;6.57;2.17;;;4.70;69.70;;;;;;2357217;54;20942;-71
2021/01/19 07:35:21;;;;;;;8.60;1.62;;;4.70;69.90;;;;;;2591882;52;20946;-71
2021/01/19 07:38:00;;;;;;;3.60;1.60;;;4.70;69.80;;;;;;2623245;52;20938;-71
2021/01/19 07:40:29;;;;;;;7.20;1.92;;;4.70;70.20;;;;;;2614837;52;20965;-71
2021/01/19 07:42:55;;;;;;;5.87;1.77;;;4.70;70.30;;;;;;2583610;52;20954;-71
2021/01/19 07:45:31;;;;;;;8.07;1.85;;;4.80;70.60;;;;;;2351912;53;21441;-71
2021/01/19 07:48:06;;;;;;;6.28;2.05;;;4.80;70.40;;;;;;2354836;53;20974;-71
2021/01/19 07:50:45;;;;;;;5.55;1.52;;;4.80;70.30;;;;;;2616060;52;21415;-71
2021/01/19 07:53:12;;;;;;;4.85;1.60;;;4.80;70.30;;;;;;2593701;52;20969;-71
2021/01/19 07:55:45;;;;;;;5.15;1.48;;;4.90;70.50;;;;;;2623242;52;21017;-71
2021/01/19 07:58:15;;;;;;;4.78;1.60;;;4.90;70.50;;;;;;2593906;52;20931;-71
2021/01/19 08:00:46;;;;;;;6.00;1.65;;;4.90;70.60;;;;;;2597399;52;21003;-71
2021/01/19 08:03:14;;;;;;;6.72;2.10;;;5.00;70.70;;;;;;2353769;53;21039;-71
2021/01/19 08:05:41;;;;;;;7.18;1.75;;;5.00;70.70;;;;;;2365960;53;21046;-71
2021/01/19 08:08:14;;;;;;;4.90;2.17;;;5.00;70.70;;;;;;2580675;53;20981;-71
2021/01/19 08:10:40;;;;;;;5.62;1.73;;;5.10;70.60;;;;;;2554087;53;20982;-71
2021/01/19 08:13:15;;;;;;;4.70;1.70;;;5.10;70.70;;;;;;2334373;53;20991;-71
2021/01/19 08:15:42;;;;;;;6.97;1.90;;;5.20;70.40;;;;;;2582456;53;21002;-71
2021/01/19 08:18:17;;;;;;;5.40;1.90;;;5.20;70.10;;;;;;2576059;53;21495;-71
2021/01/19 08:20:52;;;;;;;5.28;2.05;;;5.20;70.20;;;;;;2337611;53;20922;-71
2021/01/19 08:23:24;;;;;;;5.97;2.00;;;5.20;70.30;;;;;;2348174;53;21013;-71
2021/01/19 08:26:00;;;;;;;4.20;1.73;;;5.30;70.60;;;;;;2593296;52;21482;-72
2021/01/19 08:28:28;;;;;;;5.22;1.80;;;5.30;70.60;;;;;;2606965;52;21578;-72
2021/01/19 08:30:54;;;;;;;4.82;2.00;;;5.30;70.70;;;;;;2605266;52;20951;-71
2021/01/19 08:33:21;;;;;;;6.00;2.30;;;5.40;70.80;;;;;;2591515;52;20943;-72
2021/01/19 08:35:49;;;;;;;5.05;1.95;;;5.40;70.90;;;;;;2354002;54;21003;-72
2021/01/19 08:38:15;;;;;;;6.90;2.08;;;5.50;71.00;;;;;;2590137;52;20998;-71
2021/01/19 08:40:42;;;;;;;6.30;1.90;;;5.50;71.00;;;;;;2334314;53;20956;-71
2021/01/19 08:43:11;;;;;;;6.60;2.45;;;5.50;71.00;;;;;;2341713;54;21292;-71
2021/01/19 08:45:38;;;;;;;4.50;1.75;;;5.60;71.10;;;;;;2589388;53;20972;-72
2021/01/19 08:48:06;;;;;;;5.85;1.70;;;5.60;71.40;;;;;;2585438;52;21004;-72
2021/01/19 08:50:38;;;;;;;5.72;1.90;;;5.80;71.60;;;;;;2567196;52;20931;-72
2021/01/19 08:53:16;;;;;;;6.47;2.20;;;5.70;70.80;;;;;;2530392;53;21003;-71
2021/01/19 08:55:52;;;;;;;5.53;1.95;;;5.80;70.90;;;;;;2336914;53;20935;-72
2021/01/19 08:58:19;;;;;;;5.53;1.80;;;5.90;71.00;;;;;;2579999;53;20995;-71
2021/01/19 09:00:45;;;;;;;4.70;1.70;;;5.90;71.30;;;;;;2579370;53;20998;-71
2021/01/19 09:03:13;;;;;;;5.37;1.90;;;6.00;71.40;;;;;;2575082;52;20983;-72
2021/01/19 09:05:40;;;;;;;5.05;1.95;;;6.00;71.30;;;;;;2565329;52;21480;-71
2021/01/19 09:08:16;;;;;;;7.85;2.20;;;6.10;71.10;;;;;;2570769;53;21463;-71
2021/01/19 09:10:42;;;;;;;7.37;2.20;;;6.20;70.50;;;;;;2592251;52;21497;-72
2021/01/19 09:13:09;;;;;;;4.75;1.73;;;6.20;70.30;;;;;;2589595;52;20990;-71
2021/01/19 09:15:42;;;;;;;7.40;1.95;;;6.30;70.60;;;;;;2592543;52;20962;-72
2021/01/19 09:18:13;;;;;;;7.22;1.73;;;6.40;70.60;;;;;;2593311;52;21087;-71
2021/01/19 09:20:42;;;;;;;6.80;2.00;;;6.40;70.10;;;;;;2575619;52;20962;-72
2021/01/19 09:23:15;;;;;;;5.78;2.12;;;6.50;70.70;;;;;;2589914;52;20986;-71
2021/01/19 09:25:44;;;;;;;6.72;2.00;;;6.50;70.00;;;;;;2578349;52;20979;-72
2021/01/19 09:28:11;;;;;;;6.70;1.98;;;6.50;69.40;;;;;;2355819;53;20945;-71
2021/01/19 09:30:39;;;;;;;6.07;1.62;;;6.60;69.90;;;;;;2584383;52;21043;-72
2021/01/19 09:33:06;;;;;;;4.28;1.70;;;6.60;70.20;;;;;;2345772;53;20959;-71
2021/01/19 09:35:33;;;;;;;5.75;2.17;;;6.70;70.00;;;;;;2340870;54;20940;-72
2021/01/19 09:38:01;;;;;;;4.28;1.70;;;6.70;69.50;;;;;;2585306;53;20972;-72
2021/01/19 09:40:31;;;;;;;3.17;1.48;;;6.80;70.00;;;;;;2602828;52;21786;-71
2021/01/19 09:42:58;;;;;;;7.65;1.65;;;6.80;70.80;;;;;;2364065;54;20991;-72
2021/01/19 09:45:24;;;;;;;4.32;1.30;;;6.70;70.30;;;;;;2596663;52;20993;-71
2021/01/19 09:47:52;;;;;;;7.20;2.00;;;7.00;70.70;;;;;;2583158;52;20949;-73
2021/01/19 09:50:20;;;;;;;5.95;1.67;;;7.00;69.00;;;;;;2586726;52;20950;-72
2021/01/19 09:52:46;;;;;;;7.85;1.62;;;7.10;70.00;;;;;;2591617;52;21551;-71
2021/01/19 09:55:16;;;;;;;9.05;1.73;;;7.10;69.40;;;;;;2589960;52;21378;-72
2021/01/19 09:57:43;;;;;;;7.50;1.45;;;7.20;69.10;;;;;;2356893;53;20893;-72
2021/01/19 10:00:10;;;;;;;7.03;1.95;;;7.20;69.00;;;;;;2589599;52;20944;-71
2021/01/19 10:02:38;;;;;;;5.05;1.77;;;7.30;68.40;;;;;;2573174;52;20939;-71
2021/01/19 10:05:08;;;;;;;4.22;1.77;;;7.30;68.60;;;;;;2584509;52;20946;-72
2021/01/19 10:07:34;;;;;;;4.05;1.42;;;7.30;68.70;;;;;;2592790;52;20970;-72
2021/01/19 10:10:09;;;;;;;5.68;1.62;;;7.40;68.00;;;;;;2593782;52;20950;-72
2021/01/19 10:12:35;;;;;;;8.25;2.05;;;7.40;67.90;;;;;;2565684;53;20989;-71
2021/01/19 10:15:02;;;;;;;6.30;2.03;;;7.40;68.20;;;;;;2623082;52;21447;-71
2021/01/19 10:17:31;;;;;;;7.75;2.25;;;7.50;68.00;;;;;;2614785;52;21937;-71
2021/01/19 10:20:14;;;;;;;8.32;1.77;;;7.50;67.70;;;;;;2620172;52;20959;-71
2021/01/19 10:22:44;;;;;;;5.22;1.60;;;7.50;66.10;;;;;;2600995;52;20989;-71
2021/01/19 10:25:12;;;;;;;10.35;2.12;;;7.50;66.90;;;;;;2623173;52;20967;-72
2021/01/19 10:27:42;;;;;;;8.68;1.95;;;7.50;67.60;;;;;;2610096;52;21046;-72
2021/01/19 10:30:09;;;;;;;7.22;1.85;;;7.50;67.70;;;;;;2594266;52;21019;-71
2021/01/19 10:32:47;;;;;;;7.05;2.37;;;7.50;67.40;;;;;;2594850;52;20961;-71
2021/01/19 10:35:33;;;;;;;5.32;1.52;;;7.60;67.10;;;;;;2569545;53;21558;-72
2021/01/19 10:38:02;;;;;;;6.53;1.87;;;7.60;66.70;;;;;;2603927;52;20954;-72
2021/01/19 10:40:29;;;;;;;7.05;2.15;;;7.60;67.50;;;;;;2601843;52;20962;-72
2021/01/19 10:42:55;;;;;;;6.62;2.00;;;7.60;67.60;;;;;;2601461;52;20945;-72
2021/01/19 10:45:34;;;;;;;6.30;1.95;;;7.60;66.00;;;;;;2583570;52;20951;-71
2021/01/19 10:48:02;;;;;;;4.80;1.60;;;7.60;67.00;;;;;;2350049;53;21907;-71
2021/01/19 10:50:30;;;;;;;3.53;1.12;;;7.70;67.20;;;;;;2579801;52;21021;-72
2021/01/19 10:53:04;;;;;;;5.93;2.15;;;7.70;67.40;;;;;;2593802;52;21526;-72
2021/01/19 10:55:32;;;;;;;3.83;1.37;;;7.70;66.80;;;;;;2560494;53;21050;-72
2021/01/19 10:58:00;;;;;;;7.28;1.85;;;7.70;66.60;;;;;;2603589;52;20967;-71
2021/01/19 11:00:27;;;;;;;4.50;1.42;;;7.70;65.80;;;;;;2353759;53;21090;-71
2021/01/19 11:02:54;;;;;;;5.43;1.80;;;7.70;66.60;;;;;;2586580;52;21056;-72
2021/01/19 11:05:21;;;;;;;6.32;1.90;;;7.70;65.40;;;;;;2587561;52;20994;-71
2021/01/19 11:07:49;;;;;;;5.62;2.00;;;7.70;66.00;;;;;;2353430;54;20947;-70
2021/01/19 11:10:18;;;;;;;6.10;1.75;;;7.70;64.60;;;;;;2602514;52;21029;-71
2021/01/19 11:12:44;;;;;;;4.40;1.33;;;7.70;64.10;;;;;;2590960;52;20951;-71
2021/01/19 11:15:11;;;;;;;4.20;1.50;;;7.70;66.00;;;;;;2601602;52;20938;-71
2021/01/19 11:17:38;;;;;;;6.00;1.45;;;7.80;67.00;;;;;;2371091;54;20954;-72
2021/01/19 11:20:05;;;;;;;5.93;1.42;;;7.80;67.20;;;;;;2352471;54;21050;-71
2021/01/19 11:22:33;;;;;;;5.95;1.50;;;7.90;67.40;;;;;;2612709;52;20978;-71
2021/01/19 11:25:01;;;;;;;4.30;1.50;;;7.90;67.20;;;;;;2360252;53;20951;-71
2021/01/19 11:27:27;;;;;;;5.57;1.25;;;7.90;67.00;;;;;;2586933;52;21073;-71
2021/01/19 11:29:54;;;;;;;4.80;1.30;;;7.90;66.60;;;;;;2599000;52;20975;-72
2021/01/19 11:32:24;;;;;;;7.12;1.77;;;7.90;66.00;;;;;;2594941;52;20937;-72
2021/01/19 11:34:51;;;;;;;3.87;1.40;;;7.90;65.60;;;;;;2590875;52;21628;-72
2021/01/19 11:37:17;;;;;;;7.07;1.80;;;7.90;66.30;;;;;;2588682;52;20959;-71
2021/01/19 11:39:43;;;;;;;4.05;1.40;;;7.90;64.90;;;;;;2345258;53;20935;-72
2021/01/19 11:42:09;;;;;;;5.18;1.10;;;7.90;65.80;;;;;;2588859;52;20956;-71
2021/01/19 11:44:36;;;;;;;2.28;1.20;;;7.90;65.70;;;;;;2359756;54;20954;-72
2021/01/19 11:47:02;;;;;;;4.00;1.55;;;7.90;65.80;;;;;;2586577;52;20945;-71
2021/01/19 11:49:38;;;;;;;4.50;1.30;;;7.80;65.00;;;;;;2578757;52;20908;-72
2021/01/19 11:52:04;;;;;;;3.90;1.25;;;7.80;65.40;;;;;;2594093;52;21010;-71
2021/01/19 11:54:30;;;;;;;5.50;1.58;;;7.70;65.90;;;;;;2590429;52;21041;-72
2021/01/19 11:56:57;;;;;;;5.62;1.50;;;7.70;65.70;;;;;;2616009;52;20953;-72
2021/01/19 11:59:25;;;;;;;3.05;1.30;;;7.70;65.90;;;;;;2583418;52;20967;-71
2021/01/19 12:01:57;;;;;;;4.05;1.50;;;7.60;65.60;;;;;;2564158;53;21026;-71
2021/01/19 12:04:23;;;;;;;7.45;2.00;;;7.60;65.10;;;;;;2580239;52;20926;-71
2021/01/19 12:06:53;;;;;;;6.60;1.50;;;7.60;64.10;;;;;;2589119;52;21668;-72
2021/01/19 12:09:19;;;;;;;5.35;1.30;;;7.60;65.70;;;;;;2617952;52;20973;-71
2021/01/19 12:11:51;;;;;;;4.43;1.58;;;7.70;65.90;;;;;;2347193;54;21054;-72
2021/01/19 12:14:17;;;;;;;3.67;1.20;;;7.60;65.70;;;;;;2588646;52;20903;-71
2021/01/19 12:16:45;;;;;;;3.72;1.35;;;7.60;66.00;;;;;;2592130;52;21358;-73
2021/01/19 12:19:15;;;;;;;4.03;1.73;;;7.60;65.40;;;;;;2350422;54;20942;-72
2021/01/19 12:21:50;;;;;;;3.72;1.50;;;7.60;64.70;;;;;;2574596;53;20958;-71
2021/01/19 12:24:17;;;;;;;3.45;1.30;;;7.60;65.60;;;;;;2589879;52;21065;-71
2021/01/19 12:26:51;;;;;;;3.62;1.40;;;7.70;65.70;;;;;;2592076;52;21038;-72
2021/01/19 12:29:20;;;;;;;3.37;1.30;;;7.60;65.10;;;;;;2601001;52;20950;-71
2021/01/19 12:31:47;;;;;;;3.12;1.37;;;7.70;65.10;;;;;;2587787;52;20954;-71
2021/01/19 12:34:14;;;;;;;5.37;1.70;;;7.70;65.50;;;;;;2558883;52;20929;-70
2021/01/19 12:36:41;;;;;;;7.05;1.75;;;7.70;64.90;;;;;;2607823;52;20946;-71
2021/01/19 12:39:07;;;;;;;5.72;2.62;;;7.70;64.80;;;;;;2357621;53;20994;-71
2021/01/19 12:41:34;;;;;;;6.12;2.00;;;7.70;64.50;;;;;;2578264;52;20961;-71
2021/01/19 12:44:08;;;;;;;4.97;1.73;;;7.70;65.40;;;;;;2604542;52;21026;-71
2021/01/19 12:46:35;;;;;;;4.68;1.60;;;7.70;64.80;;;;;;2588463;52;20962;-71
2021/01/19 12:49:02;;;;;;;4.40;2.05;;;7.70;65.00;;;;;;2591742;52;21562;-71
2021/01/19 12:51:31;;;;;;;4.25;1.60;;;7.70;63.90;;;;;;2588893;52;20952;-70
2021/01/19 12:53:57;;;;;;;8.25;3.60;;;7.70;64.00;;;;;;2591434;52;20986;-71
2021/01/19 12:56:23;;;;;;;5.20;2.17;;;7.70;64.20;;;;;;2595353;52;20935;-71
2021/01/19 12:58:51;;;;;;;5.25;1.50;;;7.70;64.40;;;;;;2359494;53;21373;-71
2021/01/19 13:01:18;;;;;;;6.22;1.73;;;7.70;64.70;;;;;;2346396;54;21555;-71
2021/01/19 13:03:45;;;;;;;5.80;1.70;;;7.70;64.90;;;;;;2603493;52;21667;-71
2021/01/19 13:06:12;;;;;;;2.62;1.30;;;7.70;65.10;;;;;;2587194;52;21071;-71
2021/01/19 13:08:38;;;;;;;3.33;1.37;;;7.70;65.60;;;;;;2346896;53;20995;-71
2021/01/19 13:11:05;;;;;;;3.65;1.50;;;7.80;65.70;;;;;;2595434;52;20975;-71
2021/01/19 13:13:32;;;;;;;2.72;1.30;;;7.80;65.90;;;;;;2356638;54;21030;-71
2021/01/19 13:15:59;;;;;;;4.15;1.42;;;7.80;65.90;;;;;;2575538;52;20876;-71
2021/01/19 13:18:26;;;;;;;3.47;1.23;;;7.80;66.00;;;;;;2561369;53;20992;-71
2021/01/19 13:20:52;;;;;;;4.43;1.60;;;7.80;66.00;;;;;;2579550;52;21042;-71
2021/01/19 13:23:19;;;;;;;3.53;1.55;;;7.90;65.50;;;;;;2606396;52;21005;-71
2021/01/19 13:25:45;;;;;;;3.65;1.80;;;7.90;66.20;;;;;;2592732;52;21079;-72
2021/01/19 13:28:12;;;;;;;2.85;1.00;;;7.90;66.60;;;;;;2343710;54;20943;-72
2021/01/19 13:30:39;;;;;;;3.40;1.52;;;7.90;66.60;;;;;;2611093;52;21025;-71
2021/01/19 13:33:07;;;;;;;3.60;1.10;;;7.90;66.70;;;;;;2592600;52;20930;-71
2021/01/19 13:35:33;;;;;;;3.58;1.50;;;8.00;67.30;;;;;;2335514;53;20958;-71
2021/01/19 13:37:59;;;;;;;2.65;0.93;;;8.00;67.30;;;;;;2587895;53;20962;-71
2021/01/19 13:40:26;;;;;;;3.17;1.77;;;8.10;67.60;;;;;;2586433;52;21052;-71